Time;durP1;ratioP1;P1;durP2;ratioP2;P2;SDS_P1;SDS_P2;PMS_P1;PMS_P2;Temp;Humidity;BMP_temperature;BMP_pressure;BME280_temperature;BME280_humidity;BME280_pressure;Samples;Min_cycle;Max_cycle;Signal;HPM_P1;HPM_P2
2022/04/11 00:01:07;;;;;;;3.37;3.17;;;;;;;;;;12290229;28;20047;-76
2022/04/11 00:07:08;;;;;;;3.30;3.00;;;;;;;;;;12290015;28;20043;-76
2022/04/11 00:13:10;;;;;;;3.50;3.20;;;;;;;;;;12306608;28;20043;-77
2022/04/11 00:19:12;;;;;;;3.55;3.25;;;;;;;;;;12305965;28;20058;-76
2022/04/11 00:25:14;;;;;;;2.90;2.70;;;;;;;;;;12305771;28;20050;-76
2022/04/11 00:31:15;;;;;;;3.40;3.10;;;;;;;;;;12288574;28;20027;-76
2022/04/11 00:37:18;;;;;;;3.50;3.20;;;;;;;;;;12288502;28;20043;-76
2022/04/11 00:43:29;;;;;;;3.50;3.20;;;;;;;;;;12304995;28;20035;-76
2022/04/11 00:49:31;;;;;;;3.28;2.97;;;;;;;;;;12299957;28;20549;-76
2022/04/11 00:55:34;;;;;;;3.28;2.97;;;;;;;;;;12272094;28;20043;-76
2022/04/11 01:01:36;;;;;;;3.55;3.30;;;;;;;;;;12272006;28;20032;-77
2022/04/11 01:07:38;;;;;;;3.80;3.42;;;;;;;;;;12287616;28;20031;-77
2022/04/11 01:13:42;;;;;;;2.97;2.67;;;;;;;;;;12286697;29;20035;-77
2022/04/11 01:19:43;;;;;;;3.08;2.88;;;;;;;;;;12286580;28;20051;-76
2022/04/11 01:25:52;;;;;;;3.25;2.95;;;;;;;;;;12298699;28;20050;-77
2022/04/11 01:31:54;;;;;;;3.25;2.97;;;;;;;;;;12286091;28;20035;-76
2022/04/11 01:37:56;;;;;;;3.10;2.80;;;;;;;;;;12286121;28;20051;-76
2022/04/11 01:43:58;;;;;;;2.77;2.57;;;;;;;;;;12286001;29;20031;-76
2022/04/11 01:50:00;;;;;;;3.50;2.90;;;;;;;;;;12285261;28;20031;-77
2022/04/11 01:56:02;;;;;;;3.40;3.17;;;;;;;;;;12284048;28;20382;-76
2022/04/11 02:02:05;;;;;;;2.90;2.70;;;;;;;;;;12285157;28;20036;-76
2022/04/11 02:08:10;;;;;;;5.25;3.38;;;;;;;;;;12284585;28;20050;-76
2022/04/11 02:14:11;;;;;;;3.70;3.40;;;;;;;;;;12302691;28;20035;-76
2022/04/11 02:20:13;;;;;;;3.92;3.63;;;;;;;;;;12284572;28;20155;-75
2022/04/11 02:26:15;;;;;;;3.08;2.83;;;;;;;;;;12316159;28;20039;-76
2022/04/11 02:32:18;;;;;;;4.00;3.60;;;;;;;;;;12286480;28;20046;-76
2022/04/11 02:38:20;;;;;;;3.50;3.20;;;;;;;;;;12284193;29;20062;-77
2022/04/11 02:44:22;;;;;;;3.85;3.35;;;;;;;;;;12267820;28;20048;-76
2022/04/11 02:50:24;;;;;;;3.80;3.50;;;;;;;;;;12280092;28;20123;-75
2022/04/11 02:56:43;;;;;;;4.47;4.07;;;;;;;;;;12283183;28;20043;-75
2022/04/11 03:02:45;;;;;;;2.95;2.75;;;;;;;;;;12291220;28;20011;-75
2022/04/11 03:08:48;;;;;;;3.63;3.33;;;;;;;;;;12295402;29;20058;-76
2022/04/11 03:14:57;;;;;;;3.75;3.35;;;;;;;;;;12293571;28;20040;-76
2022/04/11 03:20:59;;;;;;;4.25;3.83;;;;;;;;;;12292527;28;20031;-76
2022/04/11 03:27:01;;;;;;;3.70;3.40;;;;;;;;;;12291836;28;20050;-76
2022/04/11 03:33:08;;;;;;;3.38;3.13;;;;;;;;;;12291821;28;20322;-76
2022/04/11 03:39:12;;;;;;;3.08;2.88;;;;;;;;;;12290714;29;20440;-76
2022/04/11 03:45:16;;;;;;;2.50;2.33;;;;;;;;;;12294053;28;20477;-77
2022/04/11 03:51:21;;;;;;;2.33;2.22;;;;;;;;;;12290820;28;20043;-76
2022/04/11 03:57:24;;;;;;;2.80;2.60;;;;;;;;;;12290451;28;20408;-76
2022/04/11 04:03:29;;;;;;;2.50;2.30;;;;;;;;;;12276073;29;20480;-76
2022/04/11 04:09:35;;;;;;;3.00;2.78;;;;;;;;;;12285077;28;20035;-77
2022/04/11 04:15:37;;;;;;;4.18;3.80;;;;;;;;;;12273976;28;20046;-77
2022/04/11 04:21:39;;;;;;;2.93;2.73;;;;;;;;;;12274724;28;20043;-77
2022/04/11 04:27:46;;;;;;;2.33;2.15;;;;;;;;;;12289441;28;20035;-77
2022/04/11 04:33:50;;;;;;;3.08;2.88;;;;;;;;;;12288613;29;20404;-76
2022/04/11 04:39:52;;;;;;;2.88;2.60;;;;;;;;;;12291847;28;20051;-76
2022/04/11 04:45:54;;;;;;;2.10;2.00;;;;;;;;;;12301270;28;20504;-76
2022/04/11 04:52:10;;;;;;;2.53;2.33;;;;;;;;;;12287961;28;20417;-76
2022/04/11 04:58:25;;;;;;;2.70;2.50;;;;;;;;;;12287650;29;20040;-77
2022/04/11 05:04:27;;;;;;;;;;;;;;;;;;12272811;28;20062;-77
2022/04/11 05:10:31;;;;;;;2.60;2.40;;;;;;;;;;12286542;28;19917;-76
2022/04/11 05:16:32;;;;;;;3.10;2.75;;;;;;;;;;12303794;28;20046;-77
2022/04/11 05:22:36;;;;;;;2.30;2.10;;;;;;;;;;12270501;28;20393;-76
2022/04/11 05:28:38;;;;;;;3.28;3.00;;;;;;;;;;12286441;28;20035;-76
2022/04/11 05:34:40;;;;;;;3.17;2.60;;;;;;;;;;12267702;28;20047;-77
2022/04/11 05:40:42;;;;;;;2.53;2.33;;;;;;;;;;12282775;29;20298;-78
2022/04/11 05:46:46;;;;;;;3.47;3.17;;;;;;;;;;12282214;29;20050;-78
2022/04/11 05:52:54;;;;;;;3.35;3.08;;;;;;;;;;12262053;29;20031;-77
2022/04/11 05:58:56;;;;;;;4.57;3.88;;;;;;;;;;12281825;29;20042;-77
2022/04/11 06:04:59;;;;;;;4.50;4.20;;;;;;;;;;12285036;28;20062;-77
2022/04/11 06:11:03;;;;;;;4.03;3.70;;;;;;;;;;12275088;28;20046;-77
2022/04/11 06:17:05;;;;;;;4.78;4.30;;;;;;;;;;12253743;28;20046;-79
2022/04/11 06:23:07;;;;;;;3.97;3.57;;;;;;;;;;12260942;29;20031;-78
2022/04/11 06:29:10;;;;;;;3.35;3.00;;;;;;;;;;12272248;29;20035;-77
2022/04/11 06:35:12;;;;;;;3.80;3.50;;;;;;;;;;12273611;28;20069;-77
2022/04/11 06:41:14;;;;;;;4.07;3.70;;;;;;;;;;12289799;28;20063;-79
2022/04/11 06:47:17;;;;;;;3.97;3.67;;;;;;;;;;12273835;28;20042;-79
2022/04/11 06:53:20;;;;;;;3.65;3.35;;;;;;;;;;12282440;29;20027;-78
2022/04/11 06:59:21;;;;;;;3.77;2.97;;;;;;;;;;12307935;28;20035;-79
2022/04/11 07:05:23;;;;;;;3.58;3.17;;;;;;;;;;12306158;29;20039;-78
2022/04/11 07:11:25;;;;;;;3.38;3.08;;;;;;;;;;12295749;28;20050;-81
2022/04/11 07:17:28;;;;;;;;;;;;;;;;;;12283852;29;20051;-81
2022/04/11 07:23:30;;;;;;;2.03;1.92;;;;;;;;;;12270721;28;20312;-81
2022/04/11 07:29:31;;;;;;;2.72;2.53;;;;;;;;;;12275884;29;20039;-81
2022/04/11 07:35:33;;;;;;;3.67;2.92;;;;;;;;;;12283625;29;20039;-80
2022/04/11 07:41:35;;;;;;;2.40;2.20;;;;;;;;;;12287269;28;20696;-80
2022/04/11 07:47:37;;;;;;;2.67;2.47;;;;;;;;;;12310765;28;20024;-81
2022/04/11 07:53:38;;;;;;;3.03;2.65;;;;;;;;;;12252657;29;20405;-79
2022/04/11 07:59:40;;;;;;;3.83;2.90;;;;;;;;;;12317400;28;20421;-80
2022/04/11 08:05:42;;;;;;;3.22;2.33;;;;;;;;;;12283496;29;20039;-81
2022/04/11 08:11:44;;;;;;;2.50;2.30;;;;;;;;;;12302773;29;20036;-80
2022/04/11 08:17:46;;;;;;;1.85;1.75;;;;;;;;;;12299519;28;20051;-80
2022/04/11 08:23:47;;;;;;;3.83;3.35;;;;;;;;;;12303491;29;20519;-80
2022/04/11 08:29:49;;;;;;;2.80;2.60;;;;;;;;;;12297228;28;20042;-79
2022/04/11 08:35:51;;;;;;;2.83;2.63;;;;;;;;;;12283779;28;20043;-80
2022/04/11 08:41:53;;;;;;;2.90;2.70;;;;;;;;;;12307629;28;20058;-85
2022/04/11 08:47:56;;;;;;;3.73;2.83;;;;;;;;;;12292884;28;20035;-78
2022/04/11 08:54:01;;;;;;;2.20;2.10;;;;;;;;;;12299112;28;20294;-79
2022/04/11 09:00:04;;;;;;;2.88;1.95;;;;;;;;;;12274369;28;20059;-81
2022/04/11 09:06:08;;;;;;;3.47;2.55;;;;;;;;;;12291027;28;20054;-82
2022/04/11 09:12:13;;;;;;;3.10;2.80;;;;;;;;;;12274730;29;20377;-82
2022/04/11 09:18:14;;;;;;;1.85;1.75;;;;;;;;;;12278593;29;20296;-81
2022/04/11 09:24:17;;;;;;;2.30;1.80;;;;;;;;;;12266341;29;20034;-82
2022/04/11 09:30:22;;;;;;;2.13;1.98;;;;;;;;;;12289572;29;20031;-82
2022/04/11 09:36:24;;;;;;;2.08;1.77;;;;;;;;;;12263155;28;20516;-81
2022/04/11 09:42:33;;;;;;;2.37;2.00;;;;;;;;;;12248033;29;20059;-82
2022/04/11 09:48:35;;;;;;;1.77;1.30;;;;;;;;;;12233300;29;20060;-80
2022/04/11 09:54:38;;;;;;;1.20;0.90;;;;;;;;;;12249866;29;20039;-81
2022/04/11 10:00:40;;;;;;;1.20;0.90;;;;;;;;;;12230507;29;20307;-80
2022/04/11 10:06:42;;;;;;;2.00;0.75;;;;;;;;;;12255402;29;20040;-82
2022/04/11 10:12:44;;;;;;;0.70;0.70;;;;;;;;;;12240899;29;20043;-82
2022/04/11 10:18:46;;;;;;;0.57;0.47;;;;;;;;;;12243436;29;20493;-79
2022/04/11 10:25:06;;;;;;;0.70;0.47;;;;;;;;;;12245586;29;20035;-80
2022/04/11 10:31:12;;;;;;;0.38;0.38;;;;;;;;;;12212160;29;20032;-80
2022/04/11 10:37:14;;;;;;;0.40;0.40;;;;;;;;;;12245057;29;20040;-79
2022/04/11 10:43:17;;;;;;;0.63;0.40;;;;;;;;;;12273560;29;20062;-78
2022/04/11 10:49:19;;;;;;;1.60;0.43;;;;;;;;;;12256409;28;20023;-80
2022/04/11 10:55:28;;;;;;;1.85;0.52;;;;;;;;;;12269110;29;21417;-81
2022/04/11 11:01:49;;;;;;;1.08;0.50;;;;;;;;;;12275702;28;20507;-79
2022/04/11 11:08:12;;;;;;;0.68;0.30;;;;;;;;;;12275678;28;20043;-79
2022/04/11 11:14:33;;;;;;;0.88;0.28;;;;;;;;;;12276370;28;20034;-84
2022/04/11 11:20:48;;;;;;;0.40;0.30;;;;;;;;;;12275055;28;20051;-81
2022/04/11 11:26:53;;;;;;;0.90;0.40;;;;;;;;;;12280361;28;20043;-77
2022/04/11 11:33:00;;;;;;;0.47;0.43;;;;;;;;;;12261068;29;20035;-79
2022/04/11 11:39:10;;;;;;;0.50;0.40;;;;;;;;;;12304716;28;20055;-78
2022/04/11 11:45:13;;;;;;;0.88;0.47;;;;;;;;;;12269320;29;20047;-78
2022/04/11 11:51:15;;;;;;;0.30;0.30;;;;;;;;;;12284715;29;20038;-78
2022/04/11 11:57:22;;;;;;;0.63;0.30;;;;;;;;;;12284563;29;20375;-78
2022/04/11 12:09:44;;;;;;;1.02;0.50;;;;;;;;;;12276720;28;20054;-77
2022/04/11 12:15:46;;;;;;;0.43;0.37;;;;;;;;;;12293652;29;20054;-78
2022/04/11 12:21:48;;;;;;;0.70;0.30;;;;;;;;;;12290358;28;20027;-79
2022/04/11 12:27:49;;;;;;;0.63;0.40;;;;;;;;;;12290068;28;20040;-78
2022/04/11 12:33:52;;;;;;;1.23;0.50;;;;;;;;;;12289551;28;20039;-78
2022/04/11 12:39:59;;;;;;;0.80;0.40;;;;;;;;;;12282938;28;20509;-78
2022/04/11 12:46:06;;;;;;;0.85;0.38;;;;;;;;;;12298345;29;20521;-78
2022/04/11 12:52:08;;;;;;;1.42;0.38;;;;;;;;;;12301401;28;20046;-79
2022/04/11 12:58:11;;;;;;;0.80;0.23;;;;;;;;;;12315797;28;20588;-79
2022/04/11 13:04:13;;;;;;;0.70;0.40;;;;;;;;;;12285856;29;20046;-79
2022/04/11 13:10:15;;;;;;;0.87;0.30;;;;;;;;;;12286352;29;20039;-79
2022/04/11 13:22:37;;;;;;;0.57;0.32;;;;;;;;;;12301834;28;20651;-79
2022/04/11 13:28:38;;;;;;;0.87;0.30;;;;;;;;;;12285484;29;20042;-78
2022/04/11 13:34:40;;;;;;;1.07;0.40;;;;;;;;;;12314043;28;20043;-78
2022/04/11 13:40:42;;;;;;;0.57;0.30;;;;;;;;;;12278899;29;20058;-78
2022/04/11 13:46:45;;;;;;;1.53;0.50;;;;;;;;;;12318228;28;20038;-79
2022/04/11 13:52:47;;;;;;;0.22;0.13;;;;;;;;;;12301482;29;20282;-79
2022/04/11 13:58:48;;;;;;;0.50;0.30;;;;;;;;;;12301954;29;20050;-79
2022/04/11 14:04:50;;;;;;;2.03;0.50;;;;;;;;;;12284867;29;20061;-78
2022/04/11 14:10:53;;;;;;;1.15;0.45;;;;;;;;;;12302041;29;20066;-79
2022/04/11 14:16:54;;;;;;;0.45;0.30;;;;;;;;;;12284620;29;20047;-80
2022/04/11 14:22:56;;;;;;;1.23;0.50;;;;;;;;;;12301603;29;20031;-79
2022/04/11 14:28:58;;;;;;;0.40;0.30;;;;;;;;;;12284183;29;20042;-79
2022/04/11 14:34:59;;;;;;;0.47;0.43;;;;;;;;;;12301650;29;20326;-79
2022/04/11 14:41:01;;;;;;;1.40;0.80;;;;;;;;;;12301085;29;20063;-79
2022/04/11 14:47:03;;;;;;;1.43;0.50;;;;;;;;;;12283495;29;20039;-78
2022/04/11 14:53:05;;;;;;;0.75;0.40;;;;;;;;;;12300415;29;20507;-79
2022/04/11 14:59:07;;;;;;;1.40;0.47;;;;;;;;;;12284678;28;20047;-79
2022/04/11 15:05:09;;;;;;;0.85;0.65;;;;;;;;;;12305947;28;20047;-78
2022/04/11 15:11:11;;;;;;;1.27;0.80;;;;;;;;;;12292690;29;20039;-79
2022/04/11 15:17:13;;;;;;;1.90;1.20;;;;;;;;;;12309561;29;20058;-78
2022/04/11 15:23:15;;;;;;;1.77;1.23;;;;;;;;;;12291831;29;20042;-78
2022/04/11 15:29:16;;;;;;;2.30;1.07;;;;;;;;;;12321297;28;20651;-78
2022/04/11 15:35:18;;;;;;;1.67;1.10;;;;;;;;;;12292182;29;20035;-79
2022/04/11 15:41:21;;;;;;;2.33;1.10;;;;;;;;;;12319586;28;20055;-80
2022/04/11 15:47:23;;;;;;;0.98;0.88;;;;;;;;;;12291178;29;20195;-79
2022/04/11 15:53:25;;;;;;;1.08;0.85;;;;;;;;;;12290453;29;20039;-79
2022/04/11 15:59:27;;;;;;;0.90;0.73;;;;;;;;;;12307299;29;20043;-79
2022/04/11 16:05:28;;;;;;;2.73;1.93;;;;;;;;;;12291335;29;20511;-79
2022/04/11 16:11:30;;;;;;;1.60;1.00;;;;;;;;;;12306287;28;20199;-79
2022/04/11 16:17:32;;;;;;;1.03;0.90;;;;;;;;;;12307045;29;20047;-79
2022/04/11 16:23:36;;;;;;;1.40;0.95;;;;;;;;;;12307084;29;20522;-79
2022/04/11 16:29:39;;;;;;;2.25;1.65;;;;;;;;;;12306694;29;20039;-79
2022/04/11 16:35:41;;;;;;;1.38;1.10;;;;;;;;;;12289274;29;20059;-78
2022/04/11 16:41:43;;;;;;;2.35;0.90;;;;;;;;;;12306268;29;20059;-78
2022/04/11 16:47:44;;;;;;;0.90;0.60;;;;;;;;;;12291963;29;20601;-78
2022/04/11 16:53:46;;;;;;;2.40;1.70;;;;;;;;;;12304970;29;20511;-78
2022/04/11 16:59:48;;;;;;;1.80;1.02;;;;;;;;;;12304870;29;20047;-78
2022/04/11 17:05:50;;;;;;;2.73;0.90;;;;;;;;;;12325427;29;20039;-79
2022/04/11 17:11:52;;;;;;;2.57;1.10;;;;;;;;;;12302378;29;20392;-79
2022/04/11 17:24:14;;;;;;;2.55;1.45;;;;;;;;;;12303400;28;20050;-79
2022/04/11 17:30:15;;;;;;;2.57;1.63;;;;;;;;;;12303345;29;20031;-75
2022/04/11 17:36:37;;;;;;;3.40;1.92;;;;;;;;;;12291679;29;20066;-75
2022/04/11 17:42:38;;;;;;;1.48;0.90;;;;;;;;;;12303024;29;20416;-76
2022/04/11 17:48:40;;;;;;;2.88;1.45;;;;;;;;;;12285686;29;20039;-78
2022/04/11 17:54:42;;;;;;;1.97;1.30;;;;;;;;;;12302432;29;20042;-80
2022/04/11 18:00:44;;;;;;;1.95;1.60;;;;;;;;;;12284781;29;20062;-78
2022/04/11 18:06:58;;;;;;;3.42;1.70;;;;;;;;;;12302810;29;20050;-79
2022/04/11 18:13:00;;;;;;;4.22;1.98;;;;;;;;;;12310031;28;20026;-79
2022/04/11 18:19:02;;;;;;;5.78;4.93;;;;;;;;;;12289546;29;20042;-84
2022/04/11 18:25:03;;;;;;;3.50;2.75;;;;;;;;;;12300912;29;20361;-83
2022/04/11 18:37:25;;;;;;;2.92;2.63;;;;;;;;;;12300711;29;20058;-87
2022/04/11 18:43:27;;;;;;;3.77;2.33;;;;;;;;;;12283584;29;20039;-80
2022/04/11 18:49:29;;;;;;;1.98;1.55;;;;;;;;;;12283419;29;20392;-87
2022/04/11 18:55:31;;;;;;;2.88;2.00;;;;;;;;;;12300430;29;20039;-87
2022/04/11 19:01:32;;;;;;;2.97;1.80;;;;;;;;;;12300003;29;20047;-84
2022/04/11 19:07:35;;;;;;;3.97;2.10;;;;;;;;;;12283582;29;20046;-81
2022/04/11 19:13:37;;;;;;;;;;;;;;;;;;12300056;29;20051;-82
2022/04/11 19:19:38;;;;;;;4.93;3.28;;;;;;;;;;12313942;28;19933;-84
2022/04/11 19:25:40;;;;;;;3.30;2.45;;;;;;;;;;12289654;29;20042;-86
2022/04/11 19:31:42;;;;;;;2.72;1.77;;;;;;;;;;12283200;29;20040;-78
2022/04/11 19:37:44;;;;;;;3.07;2.20;;;;;;;;;;12300517;29;20043;-83
2022/04/11 19:43:46;;;;;;;2.60;2.40;;;;;;;;;;12299482;29;20058;-82
2022/04/11 19:49:50;;;;;;;3.63;2.97;;;;;;;;;;12291322;29;20035;-83
2022/04/11 19:55:52;;;;;;;4.75;2.80;;;;;;;;;;12291599;29;20031;-82
2022/04/11 20:01:53;;;;;;;3.45;2.95;;;;;;;;;;12307495;29;20042;-82
2022/04/11 20:07:56;;;;;;;3.90;3.53;;;;;;;;;;12290506;29;20063;-83
2022/04/11 20:13:58;;;;;;;4.20;3.80;;;;;;;;;;12290244;29;20416;-84
2022/04/11 20:20:00;;;;;;;5.38;3.63;;;;;;;;;;12307451;29;20503;-88
2022/04/11 20:26:02;;;;;;;4.80;3.97;;;;;;;;;;12289473;29;20032;-83
2022/04/11 20:32:04;;;;;;;6.38;5.53;;;;;;;;;;12289327;29;20042;-85
2022/04/11 20:38:08;;;;;;;8.30;7.50;;;;;;;;;;12288919;29;20058;-83
2022/04/11 20:44:10;;;;;;;9.57;8.57;;;;;;;;;;12287212;29;20051;-78
2022/04/11 20:50:12;;;;;;;8.00;6.60;;;;;;;;;;12305278;29;20027;-78
2022/04/11 20:56:18;;;;;;;6.03;5.43;;;;;;;;;;12287206;28;20039;-77
2022/04/11 21:02:20;;;;;;;6.70;6.10;;;;;;;;;;12287590;28;20066;-77
2022/04/11 21:08:21;;;;;;;5.63;4.82;;;;;;;;;;12287695;29;20031;-79
2022/04/11 21:14:23;;;;;;;4.53;3.90;;;;;;;;;;12287494;29;20504;-78
2022/04/11 21:20:25;;;;;;;4.82;3.90;;;;;;;;;;12317178;28;20047;-79
2022/04/11 21:26:27;;;;;;;4.25;3.70;;;;;;;;;;12286584;29;20043;-79
2022/04/11 21:32:28;;;;;;;3.15;2.95;;;;;;;;;;12303104;29;20396;-79
2022/04/11 21:38:30;;;;;;;6.40;3.35;;;;;;;;;;12303153;29;20052;-78
2022/04/11 21:44:32;;;;;;;3.88;3.55;;;;;;;;;;12303082;29;20373;-78
2022/04/11 21:50:33;;;;;;;3.75;3.45;;;;;;;;;;12302520;29;20035;-78
2022/04/11 21:56:35;;;;;;;4.63;4.00;;;;;;;;;;12285394;29;20686;-78
2022/04/11 22:08:58;;;;;;;5.97;4.97;;;;;;;;;;12301217;28;20498;-77
2022/04/11 22:15:00;;;;;;;4.47;4.03;;;;;;;;;;12285107;29;20027;-77
2022/04/11 22:21:02;;;;;;;4.65;4.25;;;;;;;;;;12284562;29;20498;-78
2022/04/11 22:27:03;;;;;;;5.15;4.38;;;;;;;;;;12284552;29;20384;-78
2022/04/11 22:33:05;;;;;;;3.17;2.97;;;;;;;;;;12301439;28;20404;-78
2022/04/11 22:39:07;;;;;;;4.68;4.28;;;;;;;;;;12283370;29;20412;-78
2022/04/11 22:45:09;;;;;;;4.07;3.75;;;;;;;;;;12283628;29;20042;-78
2022/04/11 22:51:11;;;;;;;4.67;4.27;;;;;;;;;;12284146;29;20395;-83
2022/04/11 22:57:13;;;;;;;5.20;4.70;;;;;;;;;;12301147;29;20047;-83
2022/04/11 23:03:14;;;;;;;5.40;4.50;;;;;;;;;;12301749;29;20703;-83
2022/04/11 23:09:16;;;;;;;4.10;3.70;;;;;;;;;;12283750;29;20505;-83
2022/04/11 23:15:18;;;;;;;4.78;4.32;;;;;;;;;;12311690;28;20036;-82
2022/04/11 23:21:19;;;;;;;5.30;4.80;;;;;;;;;;12303982;28;20054;-82
2022/04/11 23:27:21;;;;;;;4.78;4.00;;;;;;;;;;12310055;29;20039;-83
2022/04/11 23:33:23;;;;;;;5.30;4.80;;;;;;;;;;12310190;29;20384;-83
2022/04/11 23:39:24;;;;;;;5.75;4.45;;;;;;;;;;12292079;29;20056;-83
2022/04/11 23:45:26;;;;;;;7.22;4.72;;;;;;;;;;12309949;29;20038;-83
2022/04/11 23:51:28;;;;;;;5.15;4.65;;;;;;;;;;12309243;29;20032;-83
2022/04/11 23:57:30;;;;;;;4.70;3.78;;;;;;;;;;12292011;29;20046;-83
